sensor_id;sensor_type;location;lat;lon;timestamp;pressure;altitude;pressure_sealevel;temperature;humidity
74915;BME280;63475;45.140;-75.616;2023-08-20T00:01:56;100173.78;;;24.43;50.53
74915;BME280;63475;45.140;-75.616;2023-08-20T00:04:00;100168.31;;;24.23;50.96
74915;BME280;63475;45.140;-75.616;2023-08-20T00:06:04;100176.63;;;24.01;51.63
74915;BME280;63475;45.140;-75.616;2023-08-20T00:08:07;100186.00;;;23.86;52.03
74915;BME280;63475;45.140;-75.616;2023-08-20T00:10:09;100184.91;;;23.67;52.05
74915;BME280;63475;45.140;-75.616;2023-08-20T00:12:12;100187.16;;;23.50;52.36
74915;BME280;63475;45.140;-75.616;2023-08-20T00:14:16;100184.75;;;23.34;52.06
74915;BME280;63475;45.140;-75.616;2023-08-20T00:16:19;100178.34;;;23.14;52.36
74915;BME280;63475;45.140;-75.616;2023-08-20T00:18:22;100186.63;;;22.99;53.42
74915;BME280;63475;45.140;-75.616;2023-08-20T00:20:25;100190.06;;;22.80;53.82
74915;BME280;63475;45.140;-75.616;2023-08-20T00:22:27;100188.06;;;22.67;53.72
74915;BME280;63475;45.140;-75.616;2023-08-20T00:24:30;100188.34;;;22.51;54.22
74915;BME280;63475;45.140;-75.616;2023-08-20T00:26:33;100188.19;;;22.31;54.93
74915;BME280;63475;45.140;-75.616;2023-08-20T00:28:36;100179.25;;;22.16;55.61
74915;BME280;63475;45.140;-75.616;2023-08-20T00:30:40;100187.91;;;22.05;56.18
74915;BME280;63475;45.140;-75.616;2023-08-20T00:32:43;100192.34;;;21.91;57.10
74915;BME280;63475;45.140;-75.616;2023-08-20T00:34:46;100200.72;;;21.75;57.07
74915;BME280;63475;45.140;-75.616;2023-08-20T00:36:49;100196.81;;;21.62;57.62
74915;BME280;63475;45.140;-75.616;2023-08-20T00:38:51;100208.81;;;21.53;58.04
74915;BME280;63475;45.140;-75.616;2023-08-20T00:40:54;100215.75;;;21.41;58.84
74915;BME280;63475;45.140;-75.616;2023-08-20T00:42:56;100217.28;;;21.29;58.99
74915;BME280;63475;45.140;-75.616;2023-08-20T00:44:59;100216.00;;;21.17;59.87
74915;BME280;63475;45.140;-75.616;2023-08-20T00:47:02;100222.09;;;21.04;59.86
74915;BME280;63475;45.140;-75.616;2023-08-20T00:49:06;100222.84;;;20.98;60.12
74915;BME280;63475;45.140;-75.616;2023-08-20T00:51:09;100230.59;;;20.86;60.64
74915;BME280;63475;45.140;-75.616;2023-08-20T00:53:13;100238.13;;;20.76;60.76
74915;BME280;63475;45.140;-75.616;2023-08-20T00:55:16;100236.91;;;20.64;61.21
74915;BME280;63475;45.140;-75.616;2023-08-20T00:57:18;100243.41;;;20.55;61.13
74915;BME280;63475;45.140;-75.616;2023-08-20T00:59:22;100233.34;;;20.41;61.27
74915;BME280;63475;45.140;-75.616;2023-08-20T01:01:25;100237.13;;;20.31;61.77
74915;BME280;63475;45.140;-75.616;2023-08-20T01:03:28;100251.56;;;20.24;62.19
74915;BME280;63475;45.140;-75.616;2023-08-20T01:05:34;100244.69;;;20.13;62.33
74915;BME280;63475;45.140;-75.616;2023-08-20T01:12:07;100243.19;;;19.80;62.64
74915;BME280;63475;45.140;-75.616;2023-08-20T01:14:17;100252.50;;;19.77;62.61
74915;BME280;63475;45.140;-75.616;2023-08-20T01:16:20;100262.69;;;19.67;61.66
74915;BME280;63475;45.140;-75.616;2023-08-20T01:18:24;100266.59;;;19.64;62.44
74915;BME280;63475;45.140;-75.616;2023-08-20T01:20:31;100254.28;;;19.54;62.53
74915;BME280;63475;45.140;-75.616;2023-08-20T01:29:18;100258.75;;;19.30;61.92
74915;BME280;63475;45.140;-75.616;2023-08-20T01:31:22;100252.88;;;19.27;62.11
74915;BME280;63475;45.140;-75.616;2023-08-20T01:33:25;100249.16;;;19.20;62.37
74915;BME280;63475;45.140;-75.616;2023-08-20T01:35:28;100245.97;;;19.16;62.00
74915;BME280;63475;45.140;-75.616;2023-08-20T01:37:31;100251.03;;;19.11;61.08
74915;BME280;63475;45.140;-75.616;2023-08-20T01:39:34;100246.81;;;19.09;62.71
74915;BME280;63475;45.140;-75.616;2023-08-20T01:41:36;100250.22;;;19.03;63.08
74915;BME280;63475;45.140;-75.616;2023-08-20T01:43:39;100253.59;;;18.96;62.16
74915;BME280;63475;45.140;-75.616;2023-08-20T01:45:42;100255.28;;;18.97;62.51
74915;BME280;63475;45.140;-75.616;2023-08-20T01:47:45;100246.84;;;18.92;62.10
74915;BME280;63475;45.140;-75.616;2023-08-20T01:49:47;100243.94;;;18.86;62.41
74915;BME280;63475;45.140;-75.616;2023-08-20T01:51:50;100248.50;;;18.85;61.99
74915;BME280;63475;45.140;-75.616;2023-08-20T01:53:52;100248.50;;;18.85;62.78
74915;BME280;63475;45.140;-75.616;2023-08-20T01:55:55;100255.13;;;18.83;62.02
74915;BME280;63475;45.140;-75.616;2023-08-20T01:57:58;100251.56;;;18.74;62.50
74915;BME280;63475;45.140;-75.616;2023-08-20T02:00:00;100257.16;;;18.73;61.96
74915;BME280;63475;45.140;-75.616;2023-08-20T02:02:03;100254.94;;;18.68;62.71
74915;BME280;63475;45.140;-75.616;2023-08-20T02:04:06;100255.28;;;18.65;62.81
74915;BME280;63475;45.140;-75.616;2023-08-20T02:06:09;100251.44;;;18.59;62.55
74915;BME280;63475;45.140;-75.616;2023-08-20T02:08:11;100266.63;;;18.60;62.28
74915;BME280;63475;45.140;-75.616;2023-08-20T02:10:14;100266.78;;;18.59;63.18
74915;BME280;63475;45.140;-75.616;2023-08-20T02:12:17;100270.66;;;18.56;63.54
74915;BME280;63475;45.140;-75.616;2023-08-20T02:14:20;100277.59;;;18.51;63.26
74915;BME280;63475;45.140;-75.616;2023-08-20T02:16:23;100282.13;;;18.50;63.35
74915;BME280;63475;45.140;-75.616;2023-08-20T02:18:25;100284.50;;;18.45;64.10
74915;BME280;63475;45.140;-75.616;2023-08-20T02:20:28;100279.41;;;18.42;64.08
74915;BME280;63475;45.140;-75.616;2023-08-20T02:22:30;100281.44;;;18.40;64.71
74915;BME280;63475;45.140;-75.616;2023-08-20T02:24:33;100288.53;;;18.41;65.00
74915;BME280;63475;45.140;-75.616;2023-08-20T02:26:35;100297.81;;;18.39;65.27
74915;BME280;63475;45.140;-75.616;2023-08-20T02:28:38;100295.63;;;18.34;65.56
74915;BME280;63475;45.140;-75.616;2023-08-20T02:30:46;100297.81;;;18.30;64.62
74915;BME280;63475;45.140;-75.616;2023-08-20T02:32:48;100305.06;;;18.30;65.32
74915;BME280;63475;45.140;-75.616;2023-08-20T02:34:51;100296.94;;;18.22;66.06
74915;BME280;63475;45.140;-75.616;2023-08-20T02:36:54;100308.59;;;18.22;65.49
74915;BME280;63475;45.140;-75.616;2023-08-20T02:38:57;100309.09;;;18.18;65.61
74915;BME280;63475;45.140;-75.616;2023-08-20T02:41:00;100314.47;;;18.18;66.22
74915;BME280;63475;45.140;-75.616;2023-08-20T02:43:03;100319.56;;;18.13;65.94
74915;BME280;63475;45.140;-75.616;2023-08-20T02:45:06;100323.59;;;18.09;nan
74915;BME280;63475;45.140;-75.616;2023-08-20T02:47:09;100315.66;;;18.07;64.94
74915;BME280;63475;45.140;-75.616;2023-08-20T02:49:11;100323.22;;;18.04;65.58
74915;BME280;63475;45.140;-75.616;2023-08-20T02:51:14;100331.66;;;18.01;65.90
74915;BME280;63475;45.140;-75.616;2023-08-20T02:53:17;100328.22;;;17.98;65.84
74915;BME280;63475;45.140;-75.616;2023-08-20T02:55:19;100325.84;;;17.95;65.58
74915;BME280;63475;45.140;-75.616;2023-08-20T02:57:22;100326.38;;;17.91;65.91
74915;BME280;63475;45.140;-75.616;2023-08-20T02:59:24;100327.38;;;17.90;65.62
74915;BME280;63475;45.140;-75.616;2023-08-20T03:01:27;100325.00;;;17.87;66.68
74915;BME280;63475;45.140;-75.616;2023-08-20T03:03:30;100328.19;;;17.82;66.23
74915;BME280;63475;45.140;-75.616;2023-08-20T03:05:33;100316.00;;;17.78;66.30
74915;BME280;63475;45.140;-75.616;2023-08-20T03:07:36;100317.88;;;17.78;66.05
74915;BME280;63475;45.140;-75.616;2023-08-20T03:09:39;100330.66;;;17.76;66.14
74915;BME280;63475;45.140;-75.616;2023-08-20T03:11:41;100330.97;;;17.73;65.71
74915;BME280;63475;45.140;-75.616;2023-08-20T03:13:44;100326.59;;;17.72;66.43
74915;BME280;63475;45.140;-75.616;2023-08-20T03:15:47;100330.81;;;17.66;66.93
74915;BME280;63475;45.140;-75.616;2023-08-20T03:17:50;100343.44;;;17.66;66.54
74915;BME280;63475;45.140;-75.616;2023-08-20T03:19:58;100341.91;;;17.63;67.56
74915;BME280;63475;45.140;-75.616;2023-08-20T03:22:01;100346.47;;;17.62;67.67
74915;BME280;63475;45.140;-75.616;2023-08-20T03:24:04;100345.94;;;17.59;67.59
74915;BME280;63475;45.140;-75.616;2023-08-20T03:26:06;100346.25;;;17.56;67.90
74915;BME280;63475;45.140;-75.616;2023-08-20T03:28:09;100348.41;;;17.52;67.79
74915;BME280;63475;45.140;-75.616;2023-08-20T03:30:12;100341.66;;;17.48;67.56
74915;BME280;63475;45.140;-75.616;2023-08-20T03:32:15;100351.44;;;17.49;67.68
74915;BME280;63475;45.140;-75.616;2023-08-20T03:34:18;100356.97;;;17.48;67.16
74915;BME280;63475;45.140;-75.616;2023-08-20T03:36:20;100360.19;;;17.43;67.70
74915;BME280;63475;45.140;-75.616;2023-08-20T03:38:23;100365.88;;;17.40;67.82
74915;BME280;63475;45.140;-75.616;2023-08-20T03:40:27;100364.19;;;17.39;67.83
74915;BME280;63475;45.140;-75.616;2023-08-20T03:42:30;100368.91;;;17.37;68.06
74915;BME280;63475;45.140;-75.616;2023-08-20T03:44:33;100361.44;;;17.31;68.36
74915;BME280;63475;45.140;-75.616;2023-08-20T03:46:36;100371.53;;;17.29;68.62
74915;BME280;63475;45.140;-75.616;2023-08-20T03:48:38;100362.75;;;17.27;68.47
74915;BME280;63475;45.140;-75.616;2023-08-20T03:50:41;100372.53;;;17.28;68.60
74915;BME280;63475;45.140;-75.616;2023-08-20T03:52:43;100374.72;;;17.24;68.68
74915;BME280;63475;45.140;-75.616;2023-08-20T03:54:46;100372.94;;;17.15;68.55
74915;BME280;63475;45.140;-75.616;2023-08-20T03:56:49;100382.41;;;17.19;68.95
74915;BME280;63475;45.140;-75.616;2023-08-20T03:58:51;100376.81;;;17.13;69.07
74915;BME280;63475;45.140;-75.616;2023-08-20T04:00:55;100381.88;;;17.16;68.94
74915;BME280;63475;45.140;-75.616;2023-08-20T04:02:58;100386.59;;;17.14;68.78
74915;BME280;63475;45.140;-75.616;2023-08-20T04:05:01;100387.88;;;17.10;68.27
74915;BME280;63475;45.140;-75.616;2023-08-20T04:07:03;100389.88;;;17.08;68.87
74915;BME280;63475;45.140;-75.616;2023-08-20T04:09:06;100390.88;;;17.07;69.00
74915;BME280;63475;45.140;-75.616;2023-08-20T04:11:11;100395.91;;;17.02;69.52
74915;BME280;63475;45.140;-75.616;2023-08-20T04:13:13;100390.81;;;16.99;69.13
74915;BME280;63475;45.140;-75.616;2023-08-20T04:15:16;100401.44;;;17.00;69.13
74915;BME280;63475;45.140;-75.616;2023-08-20T04:17:19;100404.28;;;16.99;69.45
74915;BME280;63475;45.140;-75.616;2023-08-20T04:19:21;100410.84;;;16.96;69.52
74915;BME280;63475;45.140;-75.616;2023-08-20T04:21:24;100411.97;;;16.93;69.63
74915;BME280;63475;45.140;-75.616;2023-08-20T04:23:26;100408.91;;;16.88;69.86
74915;BME280;63475;45.140;-75.616;2023-08-20T04:25:29;100413.13;;;16.91;70.12
74915;BME280;63475;45.140;-75.616;2023-08-20T04:27:31;100410.91;;;16.86;70.28
74915;BME280;63475;45.140;-75.616;2023-08-20T04:29:35;100411.34;;;16.82;69.90
74915;BME280;63475;45.140;-75.616;2023-08-20T04:31:37;100419.44;;;16.82;70.00
74915;BME280;63475;45.140;-75.616;2023-08-20T04:33:40;100415.22;;;16.79;70.10
74915;BME280;63475;45.140;-75.616;2023-08-20T04:35:42;100418.91;;;16.78;69.80
74915;BME280;63475;45.140;-75.616;2023-08-20T04:37:45;100415.53;;;16.76;69.07
74915;BME280;63475;45.140;-75.616;2023-08-20T04:39:47;100419.38;;;16.74;69.52
74915;BME280;63475;45.140;-75.616;2023-08-20T04:41:51;100418.53;;;16.73;70.87
74915;BME280;63475;45.140;-75.616;2023-08-20T04:43:53;100421.53;;;16.70;70.54
74915;BME280;63475;45.140;-75.616;2023-08-20T04:45:56;100426.06;;;16.70;71.01
74915;BME280;63475;45.140;-75.616;2023-08-20T04:47:59;100427.34;;;16.66;71.33
74915;BME280;63475;45.140;-75.616;2023-08-20T04:50:03;100431.50;;;16.60;70.40
74915;BME280;63475;45.140;-75.616;2023-08-20T04:52:05;100425.97;;;16.61;71.49
74915;BME280;63475;45.140;-75.616;2023-08-20T04:54:08;100430.78;;;16.58;70.70
74915;BME280;63475;45.140;-75.616;2023-08-20T04:56:11;100439.91;;;16.57;70.53
74915;BME280;63475;45.140;-75.616;2023-08-20T04:58:13;100432.41;;;16.51;70.12
74915;BME280;63475;45.140;-75.616;2023-08-20T05:00:16;100433.41;;;16.50;71.15
74915;BME280;63475;45.140;-75.616;2023-08-20T05:02:18;100433.28;;;16.51;71.20
74915;BME280;63475;45.140;-75.616;2023-08-20T05:04:21;100433.28;;;16.51;71.64
74915;BME280;63475;45.140;-75.616;2023-08-20T05:06:24;100431.72;;;16.49;71.72
74915;BME280;63475;45.140;-75.616;2023-08-20T05:08:26;100432.88;;;16.46;71.54
74915;BME280;63475;45.140;-75.616;2023-08-20T05:10:29;100432.16;;;16.44;71.70
74915;BME280;63475;45.140;-75.616;2023-08-20T05:12:32;100435.00;;;16.43;72.09
74915;BME280;63475;45.140;-75.616;2023-08-20T05:14:35;100426.09;;;16.42;71.77
74915;BME280;63475;45.140;-75.616;2023-08-20T05:16:37;100426.53;;;16.38;72.11
74915;BME280;63475;45.140;-75.616;2023-08-20T05:18:40;100439.16;;;16.37;71.81
74915;BME280;63475;45.140;-75.616;2023-08-20T05:20:43;100431.53;;;16.33;72.01
74915;BME280;63475;45.140;-75.616;2023-08-20T05:22:45;100437.63;;;16.35;72.31
74915;BME280;63475;45.140;-75.616;2023-08-20T05:24:48;100433.53;;;16.31;71.80
74915;BME280;63475;45.140;-75.616;2023-08-20T05:27:09;100443.31;;;16.32;72.17
74915;BME280;63475;45.140;-75.616;2023-08-20T05:29:12;100440.34;;;16.25;72.43
74915;BME280;63475;45.140;-75.616;2023-08-20T05:31:14;100443.59;;;16.29;72.15
74915;BME280;63475;45.140;-75.616;2023-08-20T05:33:17;100443.75;;;16.27;72.49
74915;BME280;63475;45.140;-75.616;2023-08-20T05:35:22;100444.91;;;16.24;72.79
74915;BME280;63475;45.140;-75.616;2023-08-20T05:37:25;100438.94;;;16.21;72.71
74915;BME280;63475;45.140;-75.616;2023-08-20T05:39:29;100445.19;;;16.21;72.66
74915;BME280;63475;45.140;-75.616;2023-08-20T05:41:31;100448.88;;;16.20;72.32
74915;BME280;63475;45.140;-75.616;2023-08-20T05:43:34;100436.69;;;16.16;72.46
74915;BME280;63475;45.140;-75.616;2023-08-20T05:45:38;100446.63;;;16.16;72.82
74915;BME280;63475;45.140;-75.616;2023-08-20T05:47:41;100438.69;;;16.14;72.38
74915;BME280;63475;45.140;-75.616;2023-08-20T05:49:44;100448.91;;;16.11;72.60
74915;BME280;63475;45.140;-75.616;2023-08-20T05:51:47;100441.81;;;16.10;72.44
74915;BME280;63475;45.140;-75.616;2023-08-20T05:53:49;100462.50;;;16.09;73.30
74915;BME280;63475;45.140;-75.616;2023-08-20T05:55:52;100461.66;;;16.09;73.18
74915;BME280;63475;45.140;-75.616;2023-08-20T05:57:54;100457.13;;;16.09;73.05
74915;BME280;63475;45.140;-75.616;2023-08-20T05:59:57;100442.41;;;16.04;73.41
74915;BME280;63475;45.140;-75.616;2023-08-20T06:02:01;100449.34;;;16.06;73.38
74915;BME280;63475;45.140;-75.616;2023-08-20T06:04:04;100442.00;;;15.99;73.64
74915;BME280;63475;45.140;-75.616;2023-08-20T06:06:07;100457.69;;;16.03;73.27
74915;BME280;63475;45.140;-75.616;2023-08-20T06:08:10;100447.53;;;15.97;73.24
74915;BME280;63475;45.140;-75.616;2023-08-20T06:10:12;100453.91;;;15.96;73.45
74915;BME280;63475;45.140;-75.616;2023-08-20T06:12:18;100448.66;;;15.94;73.98
74915;BME280;63475;45.140;-75.616;2023-08-20T06:14:21;100459.97;;;15.98;73.83
74915;BME280;63475;45.140;-75.616;2023-08-20T06:16:24;100448.38;;;15.98;74.00
74915;BME280;63475;45.140;-75.616;2023-08-20T06:18:26;100449.50;;;15.95;74.06
74915;BME280;63475;45.140;-75.616;2023-08-20T06:20:29;100451.50;;;15.93;73.95
74915;BME280;63475;45.140;-75.616;2023-08-20T06:22:31;100454.19;;;15.93;74.04
74915;BME280;63475;45.140;-75.616;2023-08-20T06:24:34;100449.94;;;15.90;73.80
74915;BME280;63475;45.140;-75.616;2023-08-20T06:26:36;100449.09;;;15.90;74.08
74915;BME280;63475;45.140;-75.616;2023-08-20T06:28:39;100447.00;;;15.84;74.24
74915;BME280;63475;45.140;-75.616;2023-08-20T06:30:41;100446.31;;;15.82;73.78
74915;BME280;63475;45.140;-75.616;2023-08-20T06:32:44;100439.38;;;15.79;74.46
74915;BME280;63475;45.140;-75.616;2023-08-20T06:34:47;100448.16;;;15.81;74.13
74915;BME280;63475;45.140;-75.616;2023-08-20T06:36:49;100450.13;;;15.79;74.33
74915;BME280;63475;45.140;-75.616;2023-08-20T06:38:52;100447.59;;;15.78;74.01
74915;BME280;63475;45.140;-75.616;2023-08-20T06:40:56;100457.50;;;15.77;74.63
74915;BME280;63475;45.140;-75.616;2023-08-20T06:42:58;100457.22;;;15.71;74.10
74915;BME280;63475;45.140;-75.616;2023-08-20T06:45:01;100467.69;;;15.74;74.62
74915;BME280;63475;45.140;-75.616;2023-08-20T06:47:04;100464.31;;;15.72;74.58
74915;BME280;63475;45.140;-75.616;2023-08-20T06:49:06;100464.59;;;15.69;74.47
74915;BME280;63475;45.140;-75.616;2023-08-20T06:51:13;100470.81;;;15.69;74.43
74915;BME280;63475;45.140;-75.616;2023-08-20T06:53:16;100466.59;;;15.67;74.36
74915;BME280;63475;45.140;-75.616;2023-08-20T06:55:18;100461.22;;;15.67;74.57
74915;BME280;63475;45.140;-75.616;2023-08-20T06:57:21;100456.84;;;15.66;74.60
74915;BME280;63475;45.140;-75.616;2023-08-20T06:59:23;100442.84;;;15.62;74.86
74915;BME280;63475;45.140;-75.616;2023-08-20T07:01:26;100445.38;;;15.64;74.60
74915;BME280;63475;45.140;-75.616;2023-08-20T07:03:29;100442.97;;;15.61;74.75
74915;BME280;63475;45.140;-75.616;2023-08-20T07:05:31;100449.34;;;15.59;74.90
74915;BME280;63475;45.140;-75.616;2023-08-20T07:07:34;100441.41;;;15.58;74.79
74915;BME280;63475;45.140;-75.616;2023-08-20T07:09:36;100447.38;;;15.52;74.59
74915;BME280;63475;45.140;-75.616;2023-08-20T07:11:40;100468.03;;;15.61;74.85
74915;BME280;63475;45.140;-75.616;2023-08-20T07:13:43;100467.16;;;15.61;75.13
74915;BME280;63475;45.140;-75.616;2023-08-20T07:15:45;100460.66;;;15.53;75.12
74915;BME280;63475;45.140;-75.616;2023-08-20T07:17:48;100461.22;;;15.57;75.27
74915;BME280;63475;45.140;-75.616;2023-08-20T07:19:50;100466.03;;;15.53;75.37
74915;BME280;63475;45.140;-75.616;2023-08-20T07:21:53;100475.81;;;15.54;75.23
74915;BME280;63475;45.140;-75.616;2023-08-20T07:23:55;100476.94;;;15.52;75.32
74915;BME280;63475;45.140;-75.616;2023-08-20T07:26:05;100486.69;;;15.53;75.46
74915;BME280;63475;45.140;-75.616;2023-08-20T07:28:08;100483.44;;;15.49;75.16
74915;BME280;63475;45.140;-75.616;2023-08-20T07:30:11;100475.66;;;15.46;75.33
74915;BME280;63475;45.140;-75.616;2023-08-20T07:32:14;100475.66;;;15.46;75.42
74915;BME280;63475;45.140;-75.616;2023-08-20T07:34:16;100480.19;;;15.46;75.55
74915;BME280;63475;45.140;-75.616;2023-08-20T07:36:20;100476.97;;;15.42;75.49
74915;BME280;63475;45.140;-75.616;2023-08-20T07:38:26;100477.38;;;15.47;75.18
74915;BME280;63475;45.140;-75.616;2023-08-20T07:40:28;100486.41;;;15.46;75.53
74915;BME280;63475;45.140;-75.616;2023-08-20T07:42:33;100478.25;;;15.38;74.92
74915;BME280;63475;45.140;-75.616;2023-08-20T07:44:36;100482.34;;;15.42;75.95
74915;BME280;63475;45.140;-75.616;2023-08-20T07:46:38;100487.72;;;15.42;75.57
74915;BME280;63475;45.140;-75.616;2023-08-20T07:48:41;100485.75;;;15.44;75.47
74915;BME280;63475;45.140;-75.616;2023-08-20T07:50:45;100491.25;;;15.43;75.79
74915;BME280;63475;45.140;-75.616;2023-08-20T07:52:47;100490.69;;;15.39;75.99
74915;BME280;63475;45.140;-75.616;2023-08-20T07:54:50;100485.59;;;15.36;75.84
74915;BME280;63475;45.140;-75.616;2023-08-20T07:56:53;100497.75;;;15.40;75.51
74915;BME280;63475;45.140;-75.616;2023-08-20T07:58:55;100507.81;;;15.38;76.09
74915;BME280;63475;45.140;-75.616;2023-08-20T08:00:58;100501.72;;;15.36;75.83
74915;BME280;63475;45.140;-75.616;2023-08-20T08:03:00;100504.53;;;15.35;75.66
74915;BME280;63475;45.140;-75.616;2023-08-20T08:05:03;100514.44;;;15.34;76.06
74915;BME280;63475;45.140;-75.616;2023-08-20T08:07:06;100511.91;;;15.33;75.78
74915;BME280;63475;45.140;-75.616;2023-08-20T08:09:35;100510.19;;;15.32;75.75
74915;BME280;63475;45.140;-75.616;2023-08-20T08:11:37;100521.94;;;15.31;75.85
74915;BME280;63475;45.140;-75.616;2023-08-20T08:13:40;100518.53;;;15.29;76.03
74915;BME280;63475;45.140;-75.616;2023-08-20T08:15:42;100521.22;;;15.29;76.19
74915;BME280;63475;45.140;-75.616;2023-08-20T08:17:45;100531.97;;;15.29;76.05
74915;BME280;63475;45.140;-75.616;2023-08-20T08:19:48;100533.09;;;15.26;75.95
74915;BME280;63475;45.140;-75.616;2023-08-20T08:21:54;100536.66;;;15.27;76.18
74915;BME280;63475;45.140;-75.616;2023-08-20T08:23:56;100538.47;;;15.26;76.28
74915;BME280;63475;45.140;-75.616;2023-08-20T08:25:59;100524.06;;;15.17;76.08
74915;BME280;63475;45.140;-75.616;2023-08-20T08:28:01;100529.16;;;15.20;76.22
74915;BME280;63475;45.140;-75.616;2023-08-20T08:30:05;100524.66;;;15.21;76.07
74915;BME280;63475;45.140;-75.616;2023-08-20T08:32:08;100523.63;;;15.22;76.05
74915;BME280;63475;45.140;-75.616;2023-08-20T08:34:10;100530.03;;;15.21;76.08
74915;BME280;63475;45.140;-75.616;2023-08-20T08:36:13;100536.38;;;15.20;75.92
74915;BME280;63475;45.140;-75.616;2023-08-20T08:38:17;100529.44;;;15.17;75.77
74915;BME280;63475;45.140;-75.616;2023-08-20T08:40:19;100524.59;;;15.11;76.20
74915;BME280;63475;45.140;-75.616;2023-08-20T08:42:24;100536.50;;;15.18;76.49
74915;BME280;63475;45.140;-75.616;2023-08-20T08:44:27;100542.75;;;15.19;76.34
74915;BME280;63475;45.140;-75.616;2023-08-20T08:46:30;100536.50;;;15.18;76.61
74915;BME280;63475;45.140;-75.616;2023-08-20T08:48:34;100529.31;;;15.19;76.77
74915;BME280;63475;45.140;-75.616;2023-08-20T08:50:37;100521.75;;;15.13;76.36
74915;BME280;63475;45.140;-75.616;2023-08-20T08:52:42;100556.19;;;15.19;76.17
74915;BME280;63475;45.140;-75.616;2023-08-20T08:54:46;100555.75;;;15.14;75.99
74915;BME280;63475;45.140;-75.616;2023-08-20T08:56:50;100569.63;;;15.19;75.95
74915;BME280;63475;45.140;-75.616;2023-08-20T08:58:54;100569.16;;;15.14;76.26
74915;BME280;63475;45.140;-75.616;2023-08-20T09:00:56;100565.38;;;15.16;75.63
74915;BME280;63475;45.140;-75.616;2023-08-20T09:02:59;100575.25;;;15.16;76.12
74915;BME280;63475;45.140;-75.616;2023-08-20T09:05:02;100569.16;;;15.14;75.84
74915;BME280;63475;45.140;-75.616;2023-08-20T09:07:04;100563.66;;;15.15;76.56
74915;BME280;63475;45.140;-75.616;2023-08-20T09:09:07;100561.13;;;15.14;76.78
74915;BME280;63475;45.140;-75.616;2023-08-20T09:11:09;100561.97;;;15.14;76.39
74915;BME280;63475;45.140;-75.616;2023-08-20T09:13:12;100578.78;;;15.16;76.20
74915;BME280;63475;45.140;-75.616;2023-08-20T09:15:15;100571.59;;;15.17;76.58
74915;BME280;63475;45.140;-75.616;2023-08-20T09:17:18;100566.22;;;15.17;76.72
74915;BME280;63475;45.140;-75.616;2023-08-20T09:19:24;100574.53;;;15.14;77.21
74915;BME280;63475;45.140;-75.616;2023-08-20T09:21:33;100571.88;;;15.14;76.76
74915;BME280;63475;45.140;-75.616;2023-08-20T09:23:36;100568.91;;;15.17;77.05
74915;BME280;63475;45.140;-75.616;2023-08-20T09:25:39;100578.94;;;15.15;76.68
74915;BME280;63475;45.140;-75.616;2023-08-20T09:27:42;100577.22;;;15.14;76.88
74915;BME280;63475;45.140;-75.616;2023-08-20T09:32:00;100576.97;;;15.17;76.75
74915;BME280;63475;45.140;-75.616;2023-08-20T09:34:04;100573.56;;;15.15;76.91
74915;BME280;63475;45.140;-75.616;2023-08-20T09:36:07;100576.97;;;15.17;76.97
74915;BME280;63475;45.140;-75.616;2023-08-20T09:38:10;100567.34;;;15.14;77.03
74915;BME280;63475;45.140;-75.616;2023-08-20T09:40:12;100570.75;;;15.16;76.65
74915;BME280;63475;45.140;-75.616;2023-08-20T09:42:15;100587.72;;;15.17;77.01
74915;BME280;63475;45.140;-75.616;2023-08-20T09:44:20;100583.31;;;15.16;76.43
74915;BME280;63475;45.140;-75.616;2023-08-20T09:46:26;100575.25;;;15.16;76.93
74915;BME280;63475;45.140;-75.616;2023-08-20T09:48:33;100569.88;;;15.16;77.01
74915;BME280;63475;45.140;-75.616;2023-08-20T09:50:36;100578.09;;;15.14;76.46
74915;BME280;63475;45.140;-75.616;2023-08-20T09:52:47;100580.78;;;15.14;76.67
74915;BME280;63475;45.140;-75.616;2023-08-20T09:55:00;100577.22;;;15.14;76.94
74915;BME280;63475;45.140;-75.616;2023-08-20T09:57:12;100579.78;;;15.15;76.62
74915;BME280;63475;45.140;-75.616;2023-08-20T09:59:17;100577.09;;;15.15;76.63
74915;BME280;63475;45.140;-75.616;2023-08-20T10:01:20;100575.41;;;15.14;77.13
74915;BME280;63475;45.140;-75.616;2023-08-20T10:03:23;100584.16;;;15.16;76.87
74915;BME280;63475;45.140;-75.616;2023-08-20T10:05:26;100578.31;;;15.11;76.92
74915;BME280;63475;45.140;-75.616;2023-08-20T10:07:29;100576.63;;;15.10;76.55
74915;BME280;63475;45.140;-75.616;2023-08-20T10:09:35;100584.44;;;15.13;76.69
74915;BME280;63475;45.140;-75.616;2023-08-20T10:11:40;100575.63;;;15.11;76.66
74915;BME280;63475;45.140;-75.616;2023-08-20T10:13:43;100581.75;;;15.13;76.71
74915;BME280;63475;45.140;-75.616;2023-08-20T10:15:46;100583.47;;;15.14;76.66
74915;BME280;63475;45.140;-75.616;2023-08-20T10:17:49;100575.78;;;15.10;76.85
74915;BME280;63475;45.140;-75.616;2023-08-20T10:19:52;100573.81;;;15.12;77.03
74915;BME280;63475;45.140;-75.616;2023-08-20T10:21:57;100580.88;;;15.13;77.19
74915;BME280;63475;45.140;-75.616;2023-08-20T10:24:06;100584.69;;;15.10;77.22
74915;BME280;63475;45.140;-75.616;2023-08-20T10:26:10;100590.06;;;15.10;76.79
74915;BME280;63475;45.140;-75.616;2023-08-20T10:28:19;100587.13;;;15.13;77.01
74915;BME280;63475;45.140;-75.616;2023-08-20T10:30:25;100587.13;;;15.13;77.10
74915;BME280;63475;45.140;-75.616;2023-08-20T10:34:51;100588.94;;;15.13;77.29
74915;BME280;63475;45.140;-75.616;2023-08-20T10:36:56;100593.34;;;15.14;77.36
74915;BME280;63475;45.140;-75.616;2023-08-20T10:39:03;100599.31;;;15.17;77.41
74915;BME280;63475;45.140;-75.616;2023-08-20T10:41:08;100601.16;;;15.17;77.37
74915;BME280;63475;45.140;-75.616;2023-08-20T10:43:26;100595.78;;;15.17;77.46
74915;BME280;63475;45.140;-75.616;2023-08-20T10:45:28;100608.22;;;15.18;77.29